Time;durP1;ratioP1;P1;durP2;ratioP2;P2;SDS_P1;SDS_P2;PMS_P1;PMS_P2;Temp;Humidity;BMP_temperature;BMP_pressure;BME280_temperature;BME280_humidity;BME280_pressure;Samples;Min_cycle;Max_cycle;Signal;HPM_P1;HPM_P2
2024/01/26 00:02:24;;;;;;;76.90;34.67;;;8.90;99.90;;;;;;5074974;28;20485;-74
2024/01/26 00:04:50;;;;;;;84.78;36.58;;;8.90;99.90;;;;;;5073309;28;20036;-74
2024/01/26 00:07:15;;;;;;;81.03;34.95;;;8.90;99.90;;;;;;5073341;28;20120;-74
2024/01/26 00:09:41;;;;;;;74.32;35.13;;;9.00;99.90;;;;;;5073305;28;20101;-75
2024/01/26 00:12:07;;;;;;;77.75;35.97;;;8.90;99.90;;;;;;5073244;28;20090;-75
2024/01/26 00:14:32;;;;;;;76.53;36.47;;;8.90;99.90;;;;;;5056567;28;20040;-75
2024/01/26 00:16:58;;;;;;;80.72;37.35;;;9.00;99.90;;;;;;5073338;28;20036;-74
2024/01/26 00:19:23;;;;;;;85.07;37.45;;;9.00;99.90;;;;;;5074674;28;20409;-74
2024/01/26 00:21:49;;;;;;;77.03;35.47;;;9.00;99.90;;;;;;5073440;28;20059;-74
2024/01/26 00:24:15;;;;;;;81.53;36.72;;;9.00;99.90;;;;;;5074531;28;20392;-74
2024/01/26 00:26:40;;;;;;;72.07;35.55;;;9.00;99.90;;;;;;5056157;28;20040;-74
2024/01/26 00:29:06;;;;;;;70.63;35.97;;;9.00;99.90;;;;;;5072909;28;20043;-74
2024/01/26 00:31:32;;;;;;;75.43;35.40;;;9.00;99.90;;;;;;5072286;28;20047;-74
2024/01/26 00:33:58;;;;;;;77.40;37.58;;;9.10;99.90;;;;;;5074384;28;20439;-74
2024/01/26 00:36:23;;;;;;;74.70;37.30;;;9.10;99.90;;;;;;5074212;28;20393;-74
2024/01/26 00:38:49;;;;;;;74.30;35.63;;;9.20;99.90;;;;;;5074261;28;20040;-74
2024/01/26 00:41:15;;;;;;;76.22;37.03;;;9.10;99.90;;;;;;5074210;28;20404;-74
2024/01/26 00:43:41;;;;;;;66.75;34.85;;;9.10;99.90;;;;;;5072521;28;20044;-74
2024/01/26 00:46:08;;;;;;;62.92;32.90;;;9.10;99.90;;;;;;5055809;28;20110;-74
2024/01/26 00:48:33;;;;;;;58.50;31.67;;;9.20;99.90;;;;;;5074098;28;20037;-74
2024/01/26 00:50:59;;;;;;;59.90;33.20;;;9.20;99.90;;;;;;5056172;28;20032;-74
2024/01/26 00:53:25;;;;;;;58.15;32.42;;;9.20;99.90;;;;;;5072469;28;20040;-74
2024/01/26 00:55:51;;;;;;;56.25;31.42;;;9.20;99.90;;;;;;5072383;28;20048;-74
2024/01/26 00:58:17;;;;;;;55.75;32.08;;;9.20;99.90;;;;;;5072388;28;20040;-74
2024/01/26 01:00:43;;;;;;;56.13;31.42;;;9.30;99.90;;;;;;5055682;28;20075;-74
2024/01/26 01:03:08;;;;;;;54.78;31.27;;;9.30;99.90;;;;;;5072571;28;20082;-74
2024/01/26 01:05:34;;;;;;;61.38;32.65;;;9.30;99.90;;;;;;5072138;28;20497;-74
2024/01/26 01:07:59;;;;;;;53.55;30.98;;;9.30;99.90;;;;;;5072241;28;20064;-74
2024/01/26 01:10:25;;;;;;;54.90;30.95;;;9.30;99.90;;;;;;5072181;28;20090;-74
2024/01/26 01:12:52;;;;;;;49.60;29.75;;;9.40;99.90;;;;;;5072184;28;20174;-74
2024/01/26 01:15:18;;;;;;;54.90;31.63;;;9.30;99.90;;;;;;5072334;28;20047;-74
2024/01/26 01:17:45;;;;;;;53.05;30.80;;;9.30;99.90;;;;;;5072136;28;20516;-74
2024/01/26 01:20:11;;;;;;;53.58;30.77;;;9.30;99.90;;;;;;5055676;28;20048;-74
2024/01/26 01:22:37;;;;;;;53.75;30.50;;;9.40;99.90;;;;;;5072281;28;20042;-74
2024/01/26 01:25:04;;;;;;;54.55;30.73;;;9.40;99.90;;;;;;5072098;28;20044;-74
2024/01/26 01:27:31;;;;;;;51.03;31.35;;;9.30;99.90;;;;;;5073484;28;20036;-74
2024/01/26 01:29:57;;;;;;;52.50;31.40;;;9.40;99.90;;;;;;5073438;28;20037;-75
2024/01/26 01:32:23;;;;;;;48.50;30.27;;;9.40;99.90;;;;;;5073473;28;20039;-75
2024/01/26 01:34:48;;;;;;;51.08;30.95;;;9.40;99.90;;;;;;5073321;28;20071;-74
2024/01/26 01:37:14;;;;;;;50.28;30.38;;;9.40;99.90;;;;;;5072134;28;20048;-74
2024/01/26 01:39:40;;;;;;;50.47;30.65;;;9.40;99.90;;;;;;5073379;28;20115;-74
2024/01/26 01:42:13;;;;;;;50.15;30.55;;;9.40;99.90;;;;;;5071830;28;20037;-74
2024/01/26 01:44:39;;;;;;;53.00;31.85;;;9.50;99.90;;;;;;5071520;28;20087;-74
2024/01/26 01:47:05;;;;;;;47.13;30.77;;;9.40;99.90;;;;;;5071790;28;20090;-75
2024/01/26 01:49:31;;;;;;;51.75;32.42;;;9.50;99.90;;;;;;5071826;28;20040;-74
2024/01/26 01:51:59;;;;;;;55.55;32.83;;;9.50;99.90;;;;;;5073203;28;20081;-74
2024/01/26 01:54:29;;;;;;;57.63;32.53;;;9.40;99.90;;;;;;5071721;28;20040;-74
2024/01/26 01:56:56;;;;;;;49.13;31.15;;;9.50;99.90;;;;;;5071847;28;20040;-74
2024/01/26 01:59:22;;;;;;;46.40;30.15;;;9.40;99.90;;;;;;5071626;28;20214;-74
2024/01/26 02:01:48;;;;;;;42.10;29.83;;;9.40;99.90;;;;;;5071645;28;20032;-74
2024/01/26 02:04:14;;;;;;;41.40;28.90;;;9.40;99.90;;;;;;5072849;28;20562;-74
2024/01/26 02:06:39;;;;;;;42.72;28.73;;;9.50;99.90;;;;;;5072934;28;20072;-74
2024/01/26 02:09:05;;;;;;;39.95;28.83;;;9.50;99.90;;;;;;5071573;28;20032;-74
2024/01/26 02:11:31;;;;;;;39.92;27.08;;;9.50;99.90;;;;;;5071565;28;20076;-74
2024/01/26 02:13:57;;;;;;;38.33;26.98;;;9.40;99.90;;;;;;5071531;28;20072;-74
2024/01/26 02:16:22;;;;;;;38.28;27.02;;;9.50;99.90;;;;;;5072923;28;20090;-74
2024/01/26 02:18:48;;;;;;;34.80;25.95;;;9.50;99.90;;;;;;5071456;28;20051;-74
2024/01/26 02:21:13;;;;;;;31.40;23.55;;;9.50;99.90;;;;;;5071438;28;20405;-74
2024/01/26 02:23:41;;;;;;;36.25;24.73;;;9.60;99.90;;;;;;5072952;28;20036;-74
2024/01/26 02:26:09;;;;;;;35.13;24.95;;;9.50;99.90;;;;;;5071402;28;20190;-74
2024/01/26 02:28:35;;;;;;;30.17;23.25;;;9.50;99.90;;;;;;5071341;28;20120;-74
2024/01/26 02:31:00;;;;;;;30.52;23.70;;;9.50;99.90;;;;;;5072879;28;20183;-74
2024/01/26 02:33:26;;;;;;;29.40;22.42;;;9.50;99.90;;;;;;5072861;28;20121;-74
2024/01/26 02:35:52;;;;;;;30.95;23.50;;;9.60;99.90;;;;;;5071531;28;20055;-74
2024/01/26 02:38:17;;;;;;;31.83;22.42;;;9.60;99.90;;;;;;5071329;28;20474;-74
2024/01/26 02:40:43;;;;;;;30.17;23.55;;;9.50;99.90;;;;;;5071290;28;20044;-74
2024/01/26 02:43:08;;;;;;;29.98;22.67;;;9.60;99.90;;;;;;5071266;28;20041;-74
2024/01/26 02:45:34;;;;;;;30.27;21.98;;;9.50;99.90;;;;;;5070900;28;20041;-74
2024/01/26 02:47:59;;;;;;;30.40;23.17;;;9.60;99.90;;;;;;5071468;28;20036;-74
2024/01/26 02:50:25;;;;;;;26.48;21.70;;;9.60;99.90;;;;;;5071146;28;20045;-74
2024/01/26 02:52:51;;;;;;;28.90;22.45;;;9.50;99.90;;;;;;5071166;28;20028;-74
2024/01/26 02:55:16;;;;;;;31.15;23.13;;;9.60;99.90;;;;;;5073473;28;20102;-74
2024/01/26 02:57:42;;;;;;;28.98;22.70;;;9.60;99.90;;;;;;5074699;28;20127;-74
2024/01/26 03:00:08;;;;;;;26.70;20.88;;;9.50;99.90;;;;;;5076173;28;20044;-74
2024/01/26 03:02:34;;;;;;;25.95;20.40;;;9.50;99.90;;;;;;5075691;28;20044;-74
2024/01/26 03:05:00;;;;;;;26.25;21.00;;;9.60;99.90;;;;;;5074650;28;20045;-74
2024/01/26 03:07:26;;;;;;;26.42;20.80;;;9.50;99.90;;;;;;5076065;28;20485;-74
2024/01/26 03:09:51;;;;;;;24.58;20.27;;;9.60;99.90;;;;;;5075695;28;20043;-74
2024/01/26 03:12:17;;;;;;;26.05;19.92;;;9.60;99.90;;;;;;5076010;28;20036;-74
2024/01/26 03:14:42;;;;;;;24.15;20.17;;;9.60;99.90;;;;;;5074301;28;20040;-75
2024/01/26 03:17:08;;;;;;;24.27;19.98;;;9.60;99.90;;;;;;5057722;28;20036;-75
2024/01/26 03:19:35;;;;;;;23.75;19.67;;;9.60;99.90;;;;;;5075161;28;20044;-75
2024/01/26 03:22:01;;;;;;;25.15;20.67;;;9.60;99.90;;;;;;5074579;28;20064;-74
2024/01/26 03:24:27;;;;;;;24.65;19.90;;;9.60;99.90;;;;;;5075723;28;20370;-74
2024/01/26 03:26:53;;;;;;;25.77;20.38;;;9.60;99.90;;;;;;5075641;28;20105;-74
2024/01/26 03:29:19;;;;;;;24.50;19.55;;;9.70;99.90;;;;;;5074152;28;20036;-75
2024/01/26 03:31:45;;;;;;;26.65;20.05;;;9.60;99.90;;;;;;5074127;28;20040;-75
2024/01/26 03:34:11;;;;;;;26.08;20.45;;;9.50;99.90;;;;;;5074052;28;20033;-75
2024/01/26 03:36:36;;;;;;;26.63;20.20;;;9.60;99.90;;;;;;5075411;28;20076;-74
2024/01/26 03:39:03;;;;;;;28.48;20.15;;;9.60;99.90;;;;;;5075500;28;20082;-75
2024/01/26 03:41:29;;;;;;;28.45;20.95;;;9.60;99.90;;;;;;5075140;28;20489;-75
2024/01/26 03:43:55;;;;;;;27.77;21.58;;;9.50;99.90;;;;;;5075195;28;20043;-74
2024/01/26 03:46:22;;;;;;;26.75;20.40;;;9.60;99.90;;;;;;5074074;28;20136;-74
2024/01/26 03:48:48;;;;;;;29.48;20.70;;;9.60;99.90;;;;;;5073753;28;20123;-74
2024/01/26 03:51:14;;;;;;;30.80;21.20;;;9.60;99.90;;;;;;5073772;28;20045;-74
2024/01/26 03:53:39;;;;;;;28.60;20.60;;;9.60;99.90;;;;;;5057304;28;20153;-74
2024/01/26 03:56:05;;;;;;;33.17;21.48;;;9.60;99.90;;;;;;5073538;28;20469;-74
2024/01/26 03:58:31;;;;;;;29.67;20.88;;;9.70;99.90;;;;;;5075076;28;20036;-74
2024/01/26 04:00:56;;;;;;;31.67;22.15;;;9.70;99.90;;;;;;5073521;28;20047;-74
2024/01/26 04:03:22;;;;;;;28.83;20.90;;;9.60;99.90;;;;;;5073513;28;20036;-74
2024/01/26 04:05:47;;;;;;;28.73;20.45;;;9.60;99.90;;;;;;5073350;28;20047;-74
2024/01/26 04:08:13;;;;;;;28.63;20.77;;;9.70;99.90;;;;;;5057019;28;20040;-74
2024/01/26 04:10:39;;;;;;;30.77;21.08;;;9.80;99.90;;;;;;5074869;28;20447;-74
2024/01/26 04:13:05;;;;;;;31.60;21.23;;;9.70;99.90;;;;;;5073576;28;20036;-74
2024/01/26 04:15:30;;;;;;;28.27;20.45;;;9.70;99.90;;;;;;5056475;28;20489;-74
2024/01/26 04:17:57;;;;;;;28.63;20.42;;;9.80;99.90;;;;;;5073719;28;20036;-73
2024/01/26 04:20:23;;;;;;;29.38;20.80;;;9.70;99.90;;;;;;5073120;28;20048;-73
2024/01/26 04:22:48;;;;;;;26.95;19.13;;;9.80;99.90;;;;;;5073098;28;20045;-73
2024/01/26 04:25:14;;;;;;;22.92;17.83;;;9.80;99.90;;;;;;5074400;28;20037;-73
2024/01/26 04:27:40;;;;;;;23.90;17.95;;;9.80;99.90;;;;;;5073378;28;20037;-73
2024/01/26 04:30:06;;;;;;;26.90;18.38;;;9.80;99.90;;;;;;5072975;28;20033;-73
2024/01/26 04:32:32;;;;;;;24.40;18.27;;;9.90;99.90;;;;;;5074436;28;20032;-73
2024/01/26 04:34:57;;;;;;;21.05;16.80;;;9.90;99.90;;;;;;5073081;28;20153;-73
2024/01/26 04:37:23;;;;;;;25.27;17.75;;;10.00;99.90;;;;;;5056202;28;20579;-73
2024/01/26 04:39:50;;;;;;;23.58;17.40;;;9.90;99.90;;;;;;5072989;28;20074;-73
2024/01/26 04:42:16;;;;;;;24.40;18.63;;;10.00;99.90;;;;;;5072971;28;20040;-73
2024/01/26 04:44:41;;;;;;;25.35;18.45;;;10.00;99.90;;;;;;5072390;28;20404;-73
2024/01/26 04:47:07;;;;;;;25.13;18.50;;;10.00;99.90;;;;;;5072894;28;20037;-73
2024/01/26 04:49:33;;;;;;;22.15;17.65;;;10.00;99.90;;;;;;5072554;28;20505;-73
2024/01/26 04:52:01;;;;;;;25.20;17.63;;;10.10;99.90;;;;;;5072515;28;20063;-73
2024/01/26 04:54:27;;;;;;;27.75;18.20;;;10.10;99.90;;;;;;5074027;28;20039;-73
2024/01/26 04:56:52;;;;;;;26.05;18.17;;;10.00;99.90;;;;;;5072356;28;20416;-73
2024/01/26 04:59:18;;;;;;;26.15;18.58;;;10.10;99.90;;;;;;5073892;28;20111;-73
2024/01/26 05:01:44;;;;;;;25.63;18.55;;;10.20;99.90;;;;;;5073867;28;20039;-73
2024/01/26 05:04:09;;;;;;;26.67;18.70;;;10.20;99.90;;;;;;5072342;28;20122;-73
2024/01/26 05:06:35;;;;;;;26.27;20.30;;;10.20;99.90;;;;;;5072171;28;20127;-73
2024/01/26 05:09:01;;;;;;;24.17;18.98;;;10.10;99.90;;;;;;5072233;28;20080;-73
2024/01/26 05:11:26;;;;;;;26.10;20.08;;;10.20;99.90;;;;;;5073754;28;20037;-73
2024/01/26 05:13:52;;;;;;;21.90;19.48;;;10.20;99.90;;;;;;5073690;28;20043;-73
2024/01/26 05:16:17;;;;;;;28.33;19.55;;;10.20;99.90;;;;;;5073595;28;20040;-73
2024/01/26 05:18:43;;;;;;;26.48;20.92;;;10.20;99.90;;;;;;5073157;28;20040;-73
2024/01/26 05:21:08;;;;;;;24.73;20.23;;;10.30;99.90;;;;;;5073609;28;20386;-73
2024/01/26 05:23:34;;;;;;;26.67;20.33;;;10.30;99.90;;;;;;5055397;28;20051;-73
2024/01/26 05:26:01;;;;;;;24.20;19.60;;;10.40;99.90;;;;;;5072008;28;20044;-73
2024/01/26 05:28:26;;;;;;;25.73;20.90;;;10.30;99.90;;;;;;5072018;28;20037;-73
2024/01/26 05:30:52;;;;;;;25.33;19.90;;;10.40;99.90;;;;;;5073470;28;20210;-73
2024/01/26 05:33:18;;;;;;;21.90;18.92;;;10.40;99.90;;;;;;5071934;28;20047;-73
2024/01/26 05:35:45;;;;;;;27.08;19.98;;;10.40;99.90;;;;;;5073033;28;20509;-73
2024/01/26 05:38:11;;;;;;;26.20;20.33;;;10.40;99.90;;;;;;5073414;28;20485;-73
2024/01/26 05:40:36;;;;;;;22.60;20.20;;;10.40;99.90;;;;;;5072138;28;20041;-73
2024/01/26 05:43:02;;;;;;;26.08;21.02;;;10.40;99.90;;;;;;5071828;28;20501;-72
2024/01/26 05:45:28;;;;;;;26.67;20.98;;;10.40;99.90;;;;;;5071499;28;20090;-72
2024/01/26 05:47:53;;;;;;;27.02;19.52;;;10.40;99.90;;;;;;5071793;28;20032;-72
2024/01/26 05:50:21;;;;;;;23.63;19.60;;;10.40;99.90;;;;;;5072050;28;20037;-72
2024/01/26 05:52:47;;;;;;;23.23;19.52;;;10.40;99.90;;;;;;5071704;28;20090;-73
2024/01/26 05:55:14;;;;;;;24.67;18.58;;;10.40;99.90;;;;;;5073154;28;20080;-73
2024/01/26 05:57:39;;;;;;;23.27;19.02;;;10.50;99.90;;;;;;5071673;28;20050;-73
2024/01/26 06:00:06;;;;;;;19.95;17.30;;;10.40;99.90;;;;;;5071745;28;20036;-73
2024/01/26 06:02:32;;;;;;;23.67;18.77;;;10.30;99.90;;;;;;5071618;28;20493;-73
2024/01/26 06:04:57;;;;;;;22.80;18.75;;;10.40;99.90;;;;;;5071473;28;20047;-73
2024/01/26 06:07:23;;;;;;;28.40;19.60;;;10.40;99.90;;;;;;5071584;28;20090;-73
2024/01/26 06:09:48;;;;;;;25.60;19.13;;;10.40;99.90;;;;;;5071638;28;20055;-73
2024/01/26 06:12:14;;;;;;;23.08;18.70;;;10.40;99.90;;;;;;5071807;28;20081;-73
2024/01/26 06:14:40;;;;;;;24.30;18.27;;;10.40;99.90;;;;;;5071443;28;20051;-73
2024/01/26 06:17:05;;;;;;;23.90;19.83;;;10.50;99.90;;;;;;5071496;28;20056;-73
2024/01/26 06:19:31;;;;;;;23.08;19.02;;;10.50;99.90;;;;;;5071499;28;20040;-73
2024/01/26 06:21:57;;;;;;;24.90;19.58;;;10.50;99.90;;;;;;5073047;28;20036;-73
2024/01/26 06:24:23;;;;;;;25.38;18.77;;;10.50;99.90;;;;;;5071727;28;20048;-73
2024/01/26 06:26:48;;;;;;;22.63;18.95;;;10.50;99.90;;;;;;5071326;28;20092;-73
2024/01/26 06:29:14;;;;;;;22.05;18.50;;;10.40;99.90;;;;;;5071423;28;20037;-72
2024/01/26 06:31:39;;;;;;;24.65;19.85;;;10.50;99.90;;;;;;5075206;28;20067;-72
2024/01/26 06:34:05;;;;;;;20.88;18.35;;;10.40;99.90;;;;;;5076694;28;20455;-72
2024/01/26 06:36:31;;;;;;;22.90;18.02;;;10.40;99.90;;;;;;5076332;28;20040;-72
2024/01/26 06:38:56;;;;;;;25.92;18.70;;;10.50;99.90;;;;;;5076585;28;20116;-72
2024/01/26 06:41:22;;;;;;;23.83;18.67;;;10.40;99.90;;;;;;5076585;28;20048;-72
2024/01/26 06:43:53;;;;;;;23.83;17.65;;;10.50;99.90;;;;;;5075178;28;20040;-72
2024/01/26 06:46:22;;;;;;;22.58;16.58;;;10.50;99.90;;;;;;5074847;28;20047;-73
2024/01/26 06:48:49;;;;;;;21.55;16.45;;;10.60;99.90;;;;;;5074938;28;20056;-73
2024/01/26 06:51:15;;;;;;;25.58;16.48;;;10.60;99.90;;;;;;5074882;28;20038;-73
2024/01/26 06:53:40;;;;;;;21.65;15.82;;;10.50;99.90;;;;;;5076372;28;20111;-73
2024/01/26 06:56:06;;;;;;;22.50;15.98;;;10.60;99.90;;;;;;5075921;28;20119;-73
2024/01/26 06:58:32;;;;;;;24.77;16.50;;;10.50;99.90;;;;;;5076248;28;20044;-73
2024/01/26 07:00:59;;;;;;;21.75;15.13;;;10.60;99.90;;;;;;5075040;28;20143;-72
2024/01/26 07:03:25;;;;;;;20.15;13.70;;;10.50;99.90;;;;;;5076184;28;20070;-73
2024/01/26 07:05:50;;;;;;;19.35;14.20;;;10.50;99.90;;;;;;5075974;28;20037;-72
2024/01/26 07:08:16;;;;;;;18.50;13.68;;;10.50;99.90;;;;;;5076069;28;20036;-72
2024/01/26 07:10:42;;;;;;;18.83;12.88;;;10.60;99.90;;;;;;5074514;28;20043;-72
2024/01/26 07:13:08;;;;;;;18.77;12.18;;;10.60;99.90;;;;;;5057757;28;20089;-72
2024/01/26 07:15:34;;;;;;;15.60;12.05;;;10.50;99.90;;;;;;5074365;28;20044;-72
2024/01/26 07:18:00;;;;;;;13.65;10.55;;;10.60;99.90;;;;;;5074406;28;20094;-72
2024/01/26 07:20:25;;;;;;;12.73;10.25;;;10.60;99.90;;;;;;5074407;28;20119;-72
2024/01/26 07:22:51;;;;;;;14.82;10.40;;;10.60;99.90;;;;;;5074291;28;20033;-72
2024/01/26 07:25:19;;;;;;;12.68;9.68;;;10.60;99.90;;;;;;5074105;28;20036;-72
2024/01/26 07:27:48;;;;;;;11.32;8.70;;;10.60;99.90;;;;;;5074168;28;20383;-72
2024/01/26 07:30:15;;;;;;;14.32;9.55;;;10.70;99.90;;;;;;5074131;28;20490;-72
2024/01/26 07:32:41;;;;;;;13.20;9.25;;;10.70;99.90;;;;;;5074373;28;20115;-72
2024/01/26 07:35:07;;;;;;;15.50;10.18;;;10.70;99.90;;;;;;5074276;28;20470;-72
2024/01/26 07:37:32;;;;;;;12.32;9.50;;;10.60;99.90;;;;;;5075234;28;20041;-72
2024/01/26 07:40:00;;;;;;;13.52;9.40;;;10.70;99.90;;;;;;5075184;28;20043;-72
2024/01/26 07:42:26;;;;;;;14.85;10.02;;;10.60;99.90;;;;;;5073803;28;20048;-72
2024/01/26 07:44:52;;;;;;;13.10;9.10;;;10.70;99.90;;;;;;5074978;28;20043;-72
2024/01/26 07:47:18;;;;;;;12.85;9.48;;;10.60;99.90;;;;;;5057171;28;20409;-72
2024/01/26 07:49:43;;;;;;;11.82;8.27;;;10.60;99.90;;;;;;5074965;28;20040;-72
2024/01/26 07:52:09;;;;;;;9.13;7.80;;;10.60;99.90;;;;;;5073760;28;20036;-72
2024/01/26 07:54:34;;;;;;;9.43;7.05;;;10.60;99.90;;;;;;5073770;28;20094;-72
2024/01/26 07:57:00;;;;;;;9.07;7.28;;;10.60;99.90;;;;;;5073590;28;20076;-72
2024/01/26 07:59:26;;;;;;;8.73;6.78;;;10.70;99.90;;;;;;5075080;28;20079;-72
2024/01/26 08:01:52;;;;;;;7.90;6.93;;;10.70;99.90;;;;;;5073571;28;20090;-72
2024/01/26 08:04:17;;;;;;;7.97;6.95;;;10.60;99.90;;;;;;5075029;28;20076;-72
2024/01/26 08:06:43;;;;;;;8.52;7.00;;;10.70;99.90;;;;;;5074865;28;20048;-72
2024/01/26 08:09:10;;;;;;;7.78;6.18;;;10.70;99.90;;;;;;5074972;28;20397;-72
2024/01/26 08:11:36;;;;;;;6.88;5.68;;;10.80;99.90;;;;;;5073999;28;20123;-75
2024/01/26 08:14:02;;;;;;;7.20;5.40;;;10.70;99.90;;;;;;5073785;28;20075;-72
2024/01/26 08:16:28;;;;;;;6.72;5.68;;;10.70;99.90;;;;;;5073146;28;20055;-72
2024/01/26 08:18:53;;;;;;;9.45;6.43;;;10.70;99.90;;;;;;5074772;28;20036;-72
2024/01/26 08:21:19;;;;;;;7.50;6.18;;;10.70;99.90;;;;;;5073150;28;20109;-72
2024/01/26 08:23:46;;;;;;;9.10;6.88;;;10.70;99.90;;;;;;5073385;28;20044;-72
2024/01/26 08:26:12;;;;;;;9.70;6.95;;;10.80;99.90;;;;;;5073057;28;20060;-72
2024/01/26 08:28:37;;;;;;;9.32;7.18;;;10.70;99.90;;;;;;5073242;28;20486;-72
2024/01/26 08:31:03;;;;;;;8.48;7.45;;;10.70;99.90;;;;;;5074510;28;20548;-72
2024/01/26 08:33:29;;;;;;;8.00;7.25;;;10.70;99.90;;;;;;5072916;28;20033;-72
2024/01/26 08:35:55;;;;;;;9.05;8.15;;;10.70;99.90;;;;;;5073046;28;20044;-72
2024/01/26 08:38:21;;;;;;;9.65;8.57;;;10.80;99.90;;;;;;5072786;28;20045;-72
2024/01/26 08:40:46;;;;;;;11.40;8.82;;;10.80;99.90;;;;;;5074278;28;20032;-72
2024/01/26 08:43:12;;;;;;;10.68;8.35;;;10.90;99.90;;;;;;5072742;28;20552;-72
2024/01/26 08:45:37;;;;;;;12.70;9.20;;;10.90;99.90;;;;;;5073749;28;20067;-72
2024/01/26 08:48:03;;;;;;;10.65;8.70;;;10.80;99.90;;;;;;5072550;28;20047;-72
2024/01/26 08:50:30;;;;;;;10.93;9.55;;;10.80;99.90;;;;;;5072575;28;20119;-72
2024/01/26 08:52:55;;;;;;;10.88;8.73;;;10.90;99.90;;;;;;5071875;28;20114;-72
2024/01/26 08:55:22;;;;;;;13.65;9.27;;;10.90;99.90;;;;;;5072447;28;20091;-72
2024/01/26 08:57:48;;;;;;;11.68;9.10;;;10.90;99.90;;;;;;5072448;28;20050;-72
2024/01/26 09:00:15;;;;;;;14.65;9.07;;;10.90;99.90;;;;;;5073636;28;20390;-72
2024/01/26 09:02:40;;;;;;;13.65;8.35;;;11.00;99.90;;;;;;5072616;28;20076;-72
2024/01/26 09:05:08;;;;;;;17.08;7.93;;;11.00;99.90;;;;;;5072435;28;20400;-72
2024/01/26 09:07:33;;;;;;;12.52;6.97;;;11.00;99.90;;;;;;5072560;28;20110;-72
2024/01/26 09:09:59;;;;;;;13.73;8.23;;;11.00;99.90;;;;;;5072259;28;20485;-72
2024/01/26 09:12:24;;;;;;;11.50;6.40;;;11.00;99.90;;;;;;5073744;28;20055;-72
2024/01/26 09:14:50;;;;;;;13.75;6.45;;;11.00;99.90;;;;;;5072077;28;20054;-72
2024/01/26 09:17:16;;;;;;;11.45;5.75;;;11.00;99.90;;;;;;5073674;28;20040;-72
2024/01/26 09:19:41;;;;;;;12.95;5.88;;;11.10;99.90;;;;;;5072388;28;20048;-72
2024/01/26 09:22:08;;;;;;;15.00;6.03;;;10.90;99.90;;;;;;5072114;28;20391;-72
2024/01/26 09:24:34;;;;;;;10.25;4.97;;;10.90;99.90;;;;;;5073524;28;20076;-72
2024/01/26 09:27:00;;;;;;;10.05;3.30;;;11.00;99.90;;;;;;5071870;28;20091;-72
2024/01/26 09:29:26;;;;;;;4.65;1.10;;;10.80;99.90;;;;;;5073925;28;20047;-72
2024/01/26 09:31:54;;;;;;;4.35;1.00;;;10.60;99.90;;;;;;5073540;28;20036;-72
2024/01/26 09:34:20;;;;;;;3.25;0.90;;;10.40;99.90;;;;;;5073191;28;20485;-72
2024/01/26 09:36:45;;;;;;;5.07;1.17;;;10.30;99.90;;;;;;5073370;28;20058;-72
2024/01/26 09:39:11;;;;;;;3.42;0.68;;;10.10;99.90;;;;;;5071899;28;20072;-72
2024/01/26 09:41:38;;;;;;;4.90;1.17;;;10.00;99.90;;;;;;5071845;28;20048;-72
2024/01/26 09:44:03;;;;;;;4.82;1.10;;;9.90;99.90;;;;;;5071750;28;20386;-72
2024/01/26 09:46:30;;;;;;;3.45;0.80;;;9.80;99.90;;;;;;5071765;28;20042;-73
2024/01/26 09:48:57;;;;;;;5.95;1.08;;;9.80;99.90;;;;;;5071726;28;20428;-73
2024/01/26 09:51:26;;;;;;;7.55;0.88;;;9.80;99.90;;;;;;5072054;28;20119;-73
2024/01/26 09:53:57;;;;;;;4.32;0.82;;;9.70;99.90;;;;;;5073280;28;20158;-72
2024/01/26 09:56:23;;;;;;;6.45;1.40;;;9.70;99.90;;;;;;5071696;28;20040;-72
2024/01/26 09:58:48;;;;;;;8.85;1.10;;;9.60;99.90;;;;;;5072066;28;20051;-72
2024/01/26 10:01:21;;;;;;;6.22;1.20;;;9.50;99.90;;;;;;5071690;28;20040;-73
2024/01/26 10:03:47;;;;;;;12.88;2.28;;;9.50;99.90;;;;;;5073777;28;20041;-73
2024/01/26 10:06:12;;;;;;;10.52;1.70;;;9.40;99.90;;;;;;5077196;28;20124;-73
2024/01/26 10:08:39;;;;;;;8.85;1.58;;;9.40;99.90;;;;;;5075706;28;20097;-73
2024/01/26 10:11:05;;;;;;;7.72;1.63;;;9.30;99.90;;;;;;5077178;28;20036;-73
2024/01/26 10:13:31;;;;;;;11.38;1.80;;;9.30;99.90;;;;;;5058882;28;20086;-73
2024/01/26 10:16:11;;;;;;;13.30;2.15;;;9.30;99.90;;;;;;5075509;28;20123;-72
2024/01/26 10:18:47;;;;;;;16.73;2.08;;;9.20;99.90;;;;;;5075542;28;20094;-72
2024/01/26 10:21:15;;;;;;;12.82;2.20;;;9.20;99.90;;;;;;5076679;28;20486;-72
2024/01/26 10:23:41;;;;;;;15.18;2.30;;;9.10;99.90;;;;;;5075412;28;20127;-72
2024/01/26 10:26:10;;;;;;;11.90;2.20;;;9.10;99.90;;;;;;5075220;28;20116;-72
2024/01/26 10:28:36;;;;;;;17.45;2.25;;;9.10;99.90;;;;;;5075344;28;20045;-72
2024/01/26 10:31:01;;;;;;;16.33;2.33;;;9.00;99.90;;;;;;5075665;28;20171;-72
2024/01/26 10:33:33;;;;;;;14.25;2.22;;;9.00;99.90;;;;;;5075468;28;20052;-71
2024/01/26 10:36:00;;;;;;;17.30;2.33;;;9.00;99.90;;;;;;5075257;28;20044;-72
2024/01/26 10:38:29;;;;;;;18.88;2.95;;;8.90;99.90;;;;;;5075078;28;20041;-71
2024/01/26 10:41:05;;;;;;;16.63;3.30;;;8.90;99.90;;;;;;5075080;28;20036;-72
2024/01/26 10:43:32;;;;;;;16.02;2.58;;;8.90;99.90;;;;;;5075035;28;20072;-72
2024/01/26 10:45:59;;;;;;;14.05;2.65;;;8.90;99.90;;;;;;5075964;28;20040;-71
2024/01/26 10:48:25;;;;;;;16.45;2.80;;;8.90;99.90;;;;;;5074931;28;20047;-71
2024/01/26 10:50:51;;;;;;;19.27;3.42;;;8.80;99.90;;;;;;5076396;28;20037;-71
2024/01/26 10:53:20;;;;;;;16.15;2.70;;;8.80;99.90;;;;;;5076338;28;20044;-71
2024/01/26 10:55:48;;;;;;;17.75;3.03;;;8.80;99.90;;;;;;5074686;28;20033;-72
2024/01/26 10:58:13;;;;;;;15.85;2.72;;;8.80;99.90;;;;;;5076184;28;20075;-72
2024/01/26 11:00:39;;;;;;;15.68;2.75;;;8.80;99.90;;;;;;5076159;28;20129;-72
2024/01/26 11:03:05;;;;;;;20.67;2.95;;;8.80;99.90;;;;;;5074594;28;20497;-71
2024/01/26 11:05:31;;;;;;;15.65;2.53;;;8.90;99.90;;;;;;5074475;28;20051;-71
2024/01/26 11:08:00;;;;;;;15.85;2.72;;;8.90;99.90;;;;;;5074848;28;20074;-71
2024/01/26 11:10:28;;;;;;;15.45;2.67;;;8.90;99.90;;;;;;5074527;28;20037;-71
2024/01/26 11:13:02;;;;;;;17.85;2.83;;;8.90;99.90;;;;;;5074511;28;20044;-71
2024/01/26 11:15:28;;;;;;;20.35;3.17;;;8.90;99.90;;;;;;5075174;28;20044;-71
2024/01/26 11:17:58;;;;;;;18.02;3.50;;;8.80;99.90;;;;;;5074398;28;20127;-71
2024/01/26 11:20:30;;;;;;;19.13;3.42;;;8.80;99.90;;;;;;5075867;28;20074;-71
2024/01/26 11:23:08;;;;;;;16.85;2.85;;;8.80;99.90;;;;;;5074402;28;20037;-72
2024/01/26 11:25:38;;;;;;;20.77;3.67;;;8.80;99.90;;;;;;5075681;28;20045;-72
2024/01/26 11:28:09;;;;;;;14.18;2.63;;;8.70;99.90;;;;;;5075971;28;20047;-72
2024/01/26 11:30:36;;;;;;;14.13;3.20;;;8.70;99.90;;;;;;5075695;28;20036;-72
2024/01/26 11:33:02;;;;;;;23.40;3.90;;;8.70;99.90;;;;;;5074423;28;20047;-72
2024/01/26 11:35:28;;;;;;;20.67;2.92;;;8.70;99.90;;;;;;5074051;28;20036;-72
2024/01/26 11:37:57;;;;;;;19.83;3.15;;;8.70;99.90;;;;;;5075540;28;20113;-72
2024/01/26 11:40:23;;;;;;;17.98;2.90;;;8.70;99.90;;;;;;5075204;28;20413;-72
2024/01/26 11:42:50;;;;;;;15.23;2.72;;;8.80;99.90;;;;;;5075538;28;20037;-72
2024/01/26 11:45:40;;;;;;;16.42;2.65;;;8.80;99.90;;;;;;5074897;28;20045;-73
2024/01/26 11:48:07;;;;;;;16.13;2.97;;;8.80;99.90;;;;;;5075434;28;20040;-73
2024/01/26 11:50:33;;;;;;;18.75;3.03;;;8.80;99.90;;;;;;5075327;28;20059;-72
2024/01/26 11:52:59;;;;;;;15.90;3.35;;;8.70;99.90;;;;;;5073776;28;20029;-72
2024/01/26 11:55:25;;;;;;;15.20;2.97;;;8.60;99.90;;;;;;5073661;28;20051;-71
2024/01/26 11:57:51;;;;;;;18.35;3.70;;;8.60;99.90;;;;;;5075216;28;20086;-71
2024/01/26 12:00:18;;;;;;;16.63;3.25;;;8.60;99.90;;;;;;5075123;28;20128;-71
2024/01/26 12:02:44;;;;;;;21.17;4.00;;;8.50;99.90;;;;;;5073563;28;20040;-71
2024/01/26 12:05:10;;;;;;;22.52;3.75;;;8.50;99.90;;;;;;5073392;28;20094;-71
2024/01/26 12:07:36;;;;;;;17.95;4.38;;;8.40;99.90;;;;;;5074662;28;20042;-71
2024/01/26 12:10:02;;;;;;;22.30;3.72;;;8.50;99.90;;;;;;5056734;28;20072;-71
2024/01/26 12:12:29;;;;;;;21.25;3.72;;;8.40;99.90;;;;;;5073338;28;20123;-71
2024/01/26 12:14:55;;;;;;;22.40;3.55;;;8.40;99.90;;;;;;5074483;28;20560;-71
2024/01/26 12:17:20;;;;;;;20.88;3.85;;;8.30;99.90;;;;;;5074836;28;20116;-71
2024/01/26 12:19:47;;;;;;;23.70;3.45;;;8.30;99.90;;;;;;5073208;28;20485;-70
2024/01/26 12:22:13;;;;;;;20.92;4.53;;;8.30;99.90;;;;;;5074708;28;20112;-71
2024/01/26 12:24:39;;;;;;;24.13;3.97;;;8.30;99.90;;;;;;5073342;28;20102;-71
2024/01/26 12:27:05;;;;;;;22.58;3.97;;;8.30;99.90;;;;;;5072339;28;20041;-71
2024/01/26 12:29:33;;;;;;;23.02;3.70;;;8.30;99.90;;;;;;5072633;28;20041;-71
2024/01/26 12:32:07;;;;;;;20.85;3.65;;;8.20;99.90;;;;;;5073013;28;20036;-71
2024/01/26 12:34:34;;;;;;;22.58;3.60;;;8.20;99.90;;;;;;5072936;28;20051;-71